createdAt,value
2023-03-23T15:58:15.476Z,4.03
2023-03-23T16:00:44.189Z,2.70
2023-03-23T16:03:15.049Z,2.73
2023-03-23T16:05:44.707Z,3.37
2023-03-23T16:08:12.889Z,3.67
2023-03-23T16:10:42.819Z,2.60
2023-03-23T16:13:12.178Z,2.80
2023-03-23T16:15:40.333Z,5.80
2023-03-23T16:18:08.738Z,9.33
2023-03-23T16:20:36.867Z,7.07
2023-03-23T16:23:06.872Z,8.07
2023-03-23T16:25:34.934Z,7.50
2023-03-23T16:28:02.985Z,8.13
2023-03-23T16:30:33.757Z,13.77
2023-03-23T16:33:02.277Z,8.40
2023-03-23T16:35:31.761Z,11.63
2023-03-23T16:38:06.957Z,12.43
2023-03-23T16:40:38.240Z,14.77
2023-03-23T16:43:09.076Z,19.70
2023-03-23T16:45:37.772Z,30.70
2023-03-23T16:48:06.356Z,26.63
2023-03-23T16:50:34.925Z,20.70
2023-03-23T16:53:03.055Z,23.20
2023-03-23T16:55:33.173Z,19.80
2023-03-23T17:00:33.583Z,28.43
2023-03-23T17:03:02.031Z,17.17
2023-03-23T17:05:30.903Z,14.37
2023-03-23T17:07:58.868Z,18.37
2023-03-23T17:10:28.211Z,12.83
2023-03-23T17:12:56.283Z,14.80
2023-03-23T17:15:26.310Z,15.37
2023-03-23T17:17:55.173Z,16.00
2023-03-23T17:20:23.674Z,23.93
2023-03-23T17:22:51.895Z,18.43
2023-03-23T17:25:20.015Z,12.57
2023-03-23T17:27:48.037Z,13.57
2023-03-23T17:30:15.967Z,10.80
2023-03-23T17:32:47.391Z,14.73
2023-03-23T17:35:15.441Z,30.30
2023-03-23T17:37:44.463Z,11.03
2023-03-23T17:40:13.788Z,12.97
2023-03-23T17:42:41.742Z,9.67
2023-03-23T17:45:10.715Z,7.60
2023-03-23T17:47:38.848Z,19.67
2023-03-23T17:50:11.889Z,16.53
2023-03-23T17:52:41.070Z,14.27
2023-03-23T17:55:09.556Z,13.50
2023-03-23T17:57:37.516Z,10.77
2023-03-23T18:00:07.400Z,8.47
2023-03-23T18:02:35.504Z,9.90
2023-03-23T18:05:03.553Z,17.03
2023-03-23T18:07:33.448Z,8.00
2023-03-23T18:10:02.170Z,6.90
2023-03-23T18:12:30.562Z,7.20
2023-03-23T18:14:58.436Z,12.43
2023-03-23T18:17:26.711Z,4.70
2023-03-23T18:19:54.672Z,7.83
2023-03-23T18:22:22.472Z,6.07
2023-03-23T18:24:51.482Z,6.83
2023-03-23T18:27:19.174Z,10.63
2023-03-23T18:29:47.161Z,3.80
2023-03-23T18:32:15.026Z,7.80
2023-03-23T18:34:43.019Z,4.27
2023-03-23T18:37:10.799Z,5.37
2023-03-23T18:39:39.070Z,7.13
2023-03-23T18:42:08.119Z,2.60
2023-03-23T18:44:35.891Z,5.33
2023-03-23T18:47:03.571Z,7.37
2023-03-23T18:49:33.329Z,4.07
2023-03-23T18:52:01.631Z,10.23
2023-03-23T18:54:33.368Z,4.17
2023-03-23T18:57:01.467Z,3.73
2023-03-23T18:59:33.860Z,3.87
2023-03-23T19:02:02.055Z,3.50
2023-03-23T19:04:31.963Z,2.80
2023-03-23T19:06:59.999Z,5.60
2023-03-23T19:09:29.706Z,4.80
2023-03-23T19:11:57.761Z,4.97
2023-03-23T19:14:25.937Z,3.20
2023-03-23T19:16:55.387Z,4.90
2023-03-23T19:19:24.894Z,9.10
2023-03-23T19:21:53.454Z,2.23
2023-03-23T19:24:21.998Z,4.40
2023-03-23T19:26:49.962Z,4.40
2023-03-23T19:29:26.632Z,4.93
2023-03-23T19:31:56.791Z,3.80
2023-03-23T19:34:25.167Z,4.10
2023-03-23T19:36:59.645Z,2.90
2023-03-23T19:39:33.481Z,3.13
2023-03-23T19:42:01.420Z,4.10
2023-03-23T19:44:29.739Z,4.40
2023-03-23T19:46:59.406Z,2.50
2023-03-23T19:49:27.930Z,3.43
2023-03-23T19:52:07.149Z,3.83
2023-03-23T19:54:39.904Z,5.23
2023-03-23T19:57:10.001Z,4.53
2023-03-23T19:59:39.334Z,3.03
2023-03-23T20:02:11.193Z,2.70
2023-03-23T20:04:40.002Z,5.37
2023-03-23T20:07:08.419Z,2.33
2023-03-23T20:09:42.197Z,2.50
2023-03-23T20:12:10.266Z,8.10
2023-03-23T20:14:44.149Z,2.93
2023-03-23T20:17:14.749Z,3.33
2023-03-23T20:19:43.076Z,8.50
2023-03-23T20:22:11.243Z,6.30
2023-03-23T20:24:39.435Z,5.93
2023-03-23T20:27:08.023Z,17.43
2023-03-23T20:29:36.636Z,4.63
2023-03-23T20:32:04.852Z,3.73
2023-03-23T20:34:36.289Z,3.70
2023-03-23T20:47:42.546Z,4.03
2023-03-23T20:50:12.466Z,4.10
2023-03-23T20:52:41.196Z,5.90
2023-03-23T20:55:09.759Z,4.87
2023-03-23T20:57:48.021Z,4.00
2023-03-23T21:00:18.071Z,3.67
2023-03-23T21:02:49.786Z,4.93
2023-03-23T21:05:17.981Z,5.40
2023-03-23T21:07:49.790Z,5.50
2023-03-23T21:10:18.026Z,4.53
2023-03-23T21:12:46.018Z,6.67
2023-03-23T21:15:26.081Z,3.33
2023-03-23T21:17:55.712Z,3.27
2023-03-23T21:20:24.020Z,3.00
2023-03-23T21:22:52.102Z,4.30
2023-03-23T21:25:22.365Z,3.63
2023-03-23T21:28:05.541Z,2.80
2023-03-23T21:30:33.524Z,3.33
2023-03-23T21:33:03.314Z,3.53
2023-03-23T21:35:31.397Z,3.10
2023-03-23T21:37:59.522Z,3.20
2023-03-23T21:40:27.767Z,3.40
2023-03-23T21:42:55.967Z,5.23
2023-03-23T21:45:25.711Z,3.93
2023-03-23T21:47:57.309Z,4.70
2023-03-23T21:50:26.930Z,3.90
2023-03-23T21:52:55.265Z,3.27
2023-03-23T21:55:23.550Z,3.60
2023-03-23T21:57:51.853Z,4.67
2023-03-23T22:00:20.411Z,4.03
2023-03-23T22:02:49.576Z,10.00
2023-03-23T22:05:17.611Z,12.47
2023-03-23T22:07:47.772Z,15.53
2023-03-23T22:10:15.740Z,16.67
2023-03-23T22:12:44.222Z,11.67
2023-03-23T22:15:15.201Z,15.23
2023-03-23T22:17:43.286Z,15.10
2023-03-23T22:20:13.887Z,12.20
2023-03-23T22:22:41.903Z,16.00
2023-03-23T22:25:11.144Z,17.07
2023-03-23T22:27:39.306Z,14.70
2023-03-23T22:30:08.610Z,11.93
2023-03-23T22:32:36.387Z,11.17
2023-03-23T22:35:06.351Z,14.53
2023-03-23T22:37:34.469Z,19.77
2023-03-23T22:40:02.265Z,12.27
2023-03-23T22:42:31.765Z,11.70
2023-03-23T22:45:00.320Z,12.23
2023-03-23T22:47:28.528Z,9.80
2023-03-23T22:49:56.516Z,12.80
2023-03-23T22:52:24.455Z,6.93
2023-03-23T22:54:52.509Z,9.73
2023-03-23T22:57:20.293Z,12.37
2023-03-23T22:59:50.302Z,8.30
2023-03-23T23:02:18.331Z,8.20
2023-03-23T23:04:46.691Z,9.70
2023-03-23T23:07:15.031Z,7.27
2023-03-23T23:09:43.272Z,7.17
2023-03-23T23:12:11.532Z,8.20
2023-03-23T23:14:40.751Z,8.13
2023-03-23T23:17:10.578Z,7.80
2023-03-23T23:19:38.506Z,8.53
2023-03-23T23:22:18.599Z,7.50
2023-03-23T23:24:47.184Z,5.83
2023-03-23T23:27:15.888Z,6.10
2023-03-23T23:29:44.988Z,4.17
2023-03-23T23:32:15.004Z,6.00
2023-03-23T23:34:43.035Z,7.87
2023-03-23T23:37:11.030Z,7.00
2023-03-23T23:39:41.230Z,6.67
2023-03-23T23:42:09.426Z,5.17
2023-03-23T23:44:37.517Z,5.30
2023-03-23T23:47:05.660Z,7.20
2023-03-23T23:49:35.040Z,5.90
2023-03-23T23:52:02.846Z,7.50
2023-03-23T23:54:30.682Z,9.20
2023-03-23T23:56:58.809Z,5.03
2023-03-23T23:59:27.377Z,7.87
